Time;durP1;ratioP1;P1;durP2;ratioP2;P2;SDS_P1;SDS_P2;PMS_P1;PMS_P2;Temp;Humidity;BMP_temperature;BMP_pressure;BME280_temperature;BME280_humidity;BME280_pressure;Samples;Min_cycle;Max_cycle;Signal;HPM_P1;HPM_P2
2023/10/08 00:02:22;;;;;;;33.35;19.70;;;9.30;99.90;;;;;;6067896;23;20069;-76
2023/10/08 00:07:45;;;;;;;36.88;20.98;;;9.40;99.90;;;;;;6075672;23;20074;-75
2023/10/08 00:10:26;;;;;;;35.13;18.00;;;9.30;14.40;;;;;;6077872;23;20019;-77
2023/10/08 00:12:55;;;;;;;32.13;18.73;;;9.40;99.90;;;;;;6065656;23;20146;-77
2023/10/08 00:15:54;;;;;;;33.88;21.17;;;9.40;99.90;;;;;;6075935;23;20352;-76
2023/10/08 00:18:48;;;;;;;33.20;18.95;;;9.50;1.00;;;;;;6064658;23;20031;-75
2023/10/08 00:21:17;;;;;;;34.13;19.63;;;9.40;1.00;;;;;;6109408;23;20082;-75
2023/10/08 00:24:26;;;;;;;29.13;18.38;;;9.40;1.00;;;;;;6088642;23;20027;-78
2023/10/08 00:29:49;;;;;;;29.83;18.63;;;9.60;99.90;;;;;;6068536;23;20027;-73
2023/10/08 00:32:22;;;;;;;33.15;20.25;;;9.60;99.90;;;;;;6059764;23;20037;-78
2023/10/08 00:35:22;;;;;;;28.55;18.48;;;9.80;1.00;;;;;;6056335;23;20046;-77
2023/10/08 00:38:14;;;;;;;;;;;9.80;1.00;;;;;;6017904;23;20090;-75
2023/10/08 00:40:46;;;;;;;34.65;21.35;;;9.80;99.90;;;;;;6088553;23;19921;-76
2023/10/08 00:44:01;;;;;;;37.17;22.20;;;9.70;99.90;;;;;;6088729;23;20034;-76
2023/10/08 00:47:09;;;;;;;37.28;21.17;;;9.70;1.00;;;;;;5979103;24;20024;-76
2023/10/08 00:53:10;;;;;;;30.20;17.75;;;9.70;99.90;;;;;;5964140;24;20035;-76
2023/10/08 00:56:13;;;;;;;30.88;17.80;;;9.60;1.00;;;;;;5988682;23;20035;-75
2023/10/08 00:59:01;;;;;;;28.33;17.45;;;9.60;1.00;;;;;;5960478;24;20020;-75
2023/10/08 01:01:50;;;;;;;30.15;17.48;;;9.60;1.00;;;;;;5976640;23;20028;-77
2023/10/08 01:04:23;;;;;;;30.80;18.35;;;9.70;1.00;;;;;;5954384;24;20353;-76
2023/10/08 01:07:10;;;;;;;34.33;19.35;;;9.70;1.00;;;;;;5957042;24;20020;-76
2023/10/08 01:14:07;;;;;;;32.60;19.73;;;9.80;1.00;;;;;;5774238;24;20031;-77
2023/10/08 01:24:07;;;;;;;29.17;19.85;;;9.90;1.00;;;;;;5808667;24;20061;-77
2023/10/08 01:27:04;;;;;;;31.48;20.00;;;10.00;1.00;;;;;;5826846;24;20021;-77
2023/10/08 01:29:47;;;;;;;27.73;18.23;;;10.00;1.00;;;;;;5841383;24;20038;-77
2023/10/08 01:32:19;;;;;;;77.93;48.88;;;10.00;1.00;;;;;;5843744;24;20247;-75
2023/10/08 01:34:47;;;;;;;34.35;20.20;;;10.10;1.00;;;;;;5874898;24;20018;-75
2023/10/08 01:37:23;;;;;;;24.95;16.98;;;10.20;1.00;;;;;;5892244;24;20072;-76
2023/10/08 01:42:48;;;;;;;28.95;16.25;;;10.10;1.00;;;;;;5947021;24;20012;-76
2023/10/08 01:45:29;;;;;;;25.30;17.13;;;10.20;1.00;;;;;;5948550;24;20009;-76
2023/10/08 01:48:15;;;;;;;26.90;16.92;;;10.10;1.00;;;;;;5972782;24;20315;-77
2023/10/08 01:51:11;;;;;;;28.45;16.58;;;10.20;1.00;;;;;;5945375;24;20092;-76
2023/10/08 01:53:57;;;;;;;27.05;16.02;;;10.20;1.00;;;;;;5951680;24;20470;-74
2023/10/08 01:56:39;;;;;;;27.45;16.50;;;10.20;1.00;;;;;;5926819;24;20028;-75
2023/10/08 01:59:21;;;;;;;26.23;16.23;;;10.30;1.00;;;;;;5916273;24;20497;-77
2023/10/08 02:02:20;;;;;;;;;;;;;;;;;;;;;
2023/10/08 02:05:08;;;;;;;26.20;16.25;;;10.40;1.00;;;;;;5940062;24;20404;-78
2023/10/08 02:08:05;;;;;;;25.63;16.08;;;10.40;1.00;;;;;;5911514;24;20025;-75
2023/10/08 02:11:25;;;;;;;;;;;;;;;;;;;;;
2023/10/08 02:14:43;;;;;;;26.00;16.35;;;10.40;99.90;;;;;;5925724;24;20036;-77
2023/10/08 02:18:30;;;;;;;26.23;16.15;;;10.30;1.00;;;;;;5922004;24;20430;-77
2023/10/08 02:24:45;;;;;;;25.88;16.13;;;10.20;1.00;;;;;;5907837;24;20029;-78
2023/10/08 02:28:03;;;;;;;23.88;15.50;;;10.30;1.00;;;;;;5914448;24;20537;-77
2023/10/08 02:31:06;;;;;;;26.45;15.85;;;10.40;1.00;;;;;;5913133;24;20060;-78
2023/10/08 02:33:45;;;;;;;24.73;15.50;;;10.40;1.00;;;;;;5926460;24;20498;-77
2023/10/08 02:36:21;;;;;;;24.52;15.15;;;10.50;99.90;;;;;;6030432;23;20023;-78
2023/10/08 02:38:51;;;;;;;25.98;15.75;;;10.60;99.90;;;;;;6064814;23;20037;-78
2023/10/08 02:41:24;;;;;;;23.58;14.85;;;10.60;99.90;;;;;;6041117;23;20014;-77
2023/10/08 02:43:53;;;;;;;24.40;14.98;;;10.50;99.90;;;;;;6041756;23;20029;-79
2023/10/08 02:46:32;;;;;;;23.48;15.25;;;10.50;1.00;;;;;;6065292;23;20018;-76
2023/10/08 02:49:03;;;;;;;24.60;15.75;;;10.40;1.00;;;;;;6041540;23;20105;-76
2023/10/08 02:51:31;;;;;;;24.20;15.88;;;10.30;1.00;;;;;;6041233;23;20125;-76
2023/10/08 02:54:05;;;;;;;24.42;15.25;;;10.30;1.00;;;;;;6065335;23;20069;-76
2023/10/08 02:56:36;;;;;;;27.75;16.30;;;10.30;1.00;;;;;;6072046;23;20062;-75
2023/10/08 02:59:09;;;;;;;25.13;15.57;;;10.40;1.00;;;;;;6043589;23;20019;-75
2023/10/08 03:01:39;;;;;;;27.75;15.55;;;10.50;1.00;;;;;;6071883;23;20027;-77
2023/10/08 03:07:02;;;;;;;30.25;16.45;;;10.50;1.00;;;;;;6117937;23;20451;-76
2023/10/08 03:09:33;;;;;;;28.55;17.20;;;10.60;1.00;;;;;;6107039;23;20032;-75
2023/10/08 03:12:09;;;;;;;29.02;17.48;;;10.60;1.00;;;;;;6126706;23;20025;-76
2023/10/08 03:14:48;;;;;;;24.88;17.42;;;10.60;1.00;;;;;;6084120;23;20030;-77
2023/10/08 03:17:21;;;;;;;27.15;17.27;;;10.70;1.00;;;;;;6117925;23;20022;-76
2023/10/08 03:20:27;;;;;;;24.85;17.58;;;10.70;1.00;;;;;;6118040;23;20019;-76
2023/10/08 03:22:47;;;;;;;28.00;18.00;;;10.60;1.00;;;;;;6118926;23;20030;-74
2023/10/08 03:25:18;;;;;;;26.17;16.90;;;10.60;1.00;;;;;;6115409;23;20023;-77
2023/10/08 03:27:48;;;;;;;26.33;17.00;;;10.60;1.00;;;;;;6119989;23;20037;-78
2023/10/08 03:30:26;;;;;;;25.42;15.73;;;10.70;1.00;;;;;;6142474;23;20017;-77
2023/10/08 03:32:56;;;;;;;25.30;16.55;;;10.60;99.90;;;;;;6122308;23;20223;-77
2023/10/08 03:35:36;;;;;;;24.88;15.65;;;10.50;99.90;;;;;;6094044;23;20531;-76
2023/10/08 03:40:57;;;;;;;24.80;15.38;;;10.50;99.90;;;;;;6103459;23;20467;-76
2023/10/08 03:43:47;;;;;;;24.90;16.40;;;10.50;99.90;;;;;;6118131;23;20113;-76
2023/10/08 03:46:17;;;;;;;25.38;16.40;;;10.50;99.90;;;;;;6093381;23;20318;-77
2023/10/08 03:48:51;;;;;;;23.38;16.23;;;10.50;99.90;;;;;;6092120;23;20408;-74
2023/10/08 03:51:22;;;;;;;25.42;16.55;;;10.50;99.90;;;;;;6092879;23;20026;-77
2023/10/08 03:53:59;;;;;;;23.70;16.00;;;10.60;99.90;;;;;;6098254;23;20027;-77
2023/10/08 03:56:36;;;;;;;24.60;16.10;;;10.60;99.90;;;;;;6105172;23;20026;-78
2023/10/08 03:59:12;;;;;;;25.13;15.32;;;10.60;99.90;;;;;;6096989;23;20034;-76
2023/10/08 04:01:48;;;;;;;;;;;10.60;99.90;;;;;;6071517;23;20041;-78
2023/10/08 04:04:48;;;;;;;25.10;16.52;;;10.50;99.90;;;;;;6046970;23;19925;-76
2023/10/08 04:12:50;;;;;;;23.10;15.18;;;10.60;99.90;;;;;;6056463;23;20027;-78
2023/10/08 04:15:24;;;;;;;26.67;15.88;;;10.60;99.90;;;;;;6040414;23;20662;-74
2023/10/08 04:17:58;;;;;;;25.83;15.82;;;10.60;99.90;;;;;;6064270;23;20019;-77
2023/10/08 04:20:38;;;;;;;27.58;17.02;;;10.70;99.90;;;;;;6051146;23;20030;-76
2023/10/08 04:23:39;;;;;;;26.08;15.80;;;10.80;99.90;;;;;;6052727;23;20027;-73
2023/10/08 04:26:14;;;;;;;24.50;14.90;;;10.80;99.90;;;;;;6067956;23;20106;-76
2023/10/08 04:28:52;;;;;;;24.48;15.70;;;10.80;99.90;;;;;;6072677;23;20076;-77
2023/10/08 04:31:39;;;;;;;24.48;15.07;;;10.70;99.90;;;;;;6074139;23;20094;-78
2023/10/08 04:34:15;;;;;;;24.52;15.68;;;10.70;99.90;;;;;;6065784;23;20019;-77
2023/10/08 04:36:46;;;;;;;25.35;15.88;;;10.60;99.90;;;;;;6040190;23;20055;-78
2023/10/08 04:39:31;;;;;;;27.10;14.98;;;10.70;99.90;;;;;;6039612;23;20046;-76
2023/10/08 04:42:05;;;;;;;22.40;14.47;;;10.80;99.90;;;;;;6041393;23;20498;-75
2023/10/08 04:44:41;;;;;;;22.73;14.23;;;10.80;99.90;;;;;;6028085;23;20093;-76
2023/10/08 04:47:31;;;;;;;25.55;15.23;;;10.90;99.90;;;;;;6028904;23;20019;-79
2023/10/08 04:50:04;;;;;;;23.63;14.32;;;10.90;99.90;;;;;;6038891;23;20031;-77
2023/10/08 04:52:45;;;;;;;28.90;15.70;;;10.90;99.90;;;;;;6073506;23;20062;-78
2023/10/08 04:55:20;;;;;;;27.88;15.40;;;10.90;99.90;;;;;;6038942;23;20070;-78
2023/10/08 04:58:19;;;;;;;26.90;16.08;;;10.90;99.90;;;;;;6063602;23;20030;-77
2023/10/08 05:08:17;;;;;;;26.48;17.08;;;11.10;99.90;;;;;;6054731;23;20113;-76
2023/10/08 05:11:25;;;;;;;25.35;16.33;;;11.20;99.90;;;;;;6054751;23;20339;-74
2023/10/08 05:14:34;;;;;;;25.15;15.48;;;11.20;99.90;;;;;;6101060;23;20033;-77
2023/10/08 05:17:34;;;;;;;;;;;;;;;;;;;;;
2023/10/08 05:20:40;;;;;;;33.08;16.38;;;11.30;99.90;;;;;;6064305;23;20477;-77
2023/10/08 05:23:53;;;;;;;24.50;14.70;;;11.40;99.90;;;;;;6060360;23;20073;-76
2023/10/08 05:27:26;;;;;;;26.15;17.08;;;11.40;99.90;;;;;;6091502;23;20106;-75
2023/10/08 05:36:50;;;;;;;28.70;17.42;;;11.40;99.90;;;;;;6064845;23;20018;-76
2023/10/08 05:40:13;;;;;;;26.30;16.63;;;11.40;99.90;;;;;;6082481;23;20019;-75
2023/10/08 05:46:19;;;;;;;25.70;16.08;;;11.60;99.90;;;;;;6090520;23;20026;-77
2023/10/08 05:49:01;;;;;;;25.90;16.67;;;11.50;99.90;;;;;;6094326;23;20495;-77
2023/10/08 05:55:25;;;;;;;25.70;15.00;;;11.70;99.90;;;;;;6043853;23;20023;-76
2023/10/08 06:08:48;;;;;;;23.92;15.77;;;12.20;1.00;;;;;;6079165;23;20042;-76
2023/10/08 06:22:50;;;;;;;28.95;17.90;;;12.70;1.00;;;;;;5943218;23;20031;-77
2023/10/08 06:25:44;;;;;;;32.10;17.92;;;12.90;99.90;;;;;;6035764;23;20359;-77
2023/10/08 06:28:20;;;;;;;27.10;18.63;;;12.90;1.00;;;;;;6034136;23;20019;-76
2023/10/08 06:30:55;;;;;;;38.42;18.67;;;13.00;1.00;;;;;;5991036;23;20425;-77
2023/10/08 06:33:25;;;;;;;26.75;17.23;;;13.10;1.00;;;;;;6026170;23;20075;-74
2023/10/08 06:36:13;;;;;;;26.58;16.63;;;13.20;99.90;;;;;;6037805;23;20076;-77
2023/10/08 06:38:48;;;;;;;26.08;15.90;;;13.40;1.00;;;;;;6029694;23;20311;-74
2023/10/08 06:41:17;;;;;;;28.08;17.08;;;13.30;1.00;;;;;;6029170;23;20035;-75
2023/10/08 06:43:48;;;;;;;25.63;15.65;;;13.50;99.90;;;;;;6053723;23;20035;-74
2023/10/08 06:46:18;;;;;;;28.80;15.90;;;13.70;1.00;;;;;;6062904;23;20031;-74
2023/10/08 06:48:52;;;;;;;24.85;15.18;;;13.70;1.00;;;;;;6036181;23;20031;-76
2023/10/08 06:51:25;;;;;;;24.20;14.10;;;13.90;1.00;;;;;;6011789;23;20248;-76
2023/10/08 06:53:55;;;;;;;23.40;15.00;;;13.90;99.90;;;;;;6056201;23;20030;-74
2023/10/08 06:56:24;;;;;;;23.27;15.80;;;14.10;99.90;;;;;;6089678;23;20022;-74
2023/10/08 06:58:53;;;;;;;24.60;16.70;;;14.20;1.00;;;;;;6074937;23;20047;-74
2023/10/08 07:01:22;;;;;;;24.52;16.67;;;14.40;1.00;;;;;;6107377;23;20021;-76
2023/10/08 07:03:50;;;;;;;23.08;15.38;;;14.20;1.00;;;;;;6107852;23;20018;-73
2023/10/08 07:06:25;;;;;;;27.65;18.52;;;14.30;99.90;;;;;;6100769;23;20435;-75
2023/10/08 07:08:55;;;;;;;27.30;18.02;;;14.50;1.00;;;;;;6114185;23;20535;-73
2023/10/08 07:11:24;;;;;;;31.35;19.88;;;14.70;1.00;;;;;;6134699;23;20030;-75
2023/10/08 07:13:57;;;;;;;31.02;18.52;;;14.90;99.90;;;;;;6117288;23;20027;-77
2023/10/08 07:16:31;;;;;;;25.15;15.85;;;15.30;1.00;;;;;;6107488;23;20045;-77
2023/10/08 07:19:32;;;;;;;24.30;16.40;;;15.60;1.00;;;;;;6096497;23;20018;-74
2023/10/08 07:22:31;;;;;;;;;;;;;;;;;;;;;
2023/10/08 07:25:08;;;;;;;22.42;15.68;;;16.10;99.90;;;;;;6118478;23;20026;-77
2023/10/08 07:27:44;;;;;;;22.38;15.90;;;16.20;99.90;;;;;;6100793;23;20022;-75
2023/10/08 07:30:13;;;;;;;25.13;15.15;;;16.40;1.00;;;;;;6084736;23;20030;-77
2023/10/08 07:32:44;;;;;;;24.77;15.27;;;16.60;99.90;;;;;;6100136;23;20042;-75
2023/10/08 07:35:24;;;;;;;24.48;14.65;;;16.70;1.00;;;;;;6100129;23;20027;-77
2023/10/08 07:37:54;;;;;;;23.90;15.73;;;16.70;1.00;;;;;;6103188;23;20022;-78
2023/10/08 07:40:38;;;;;;;30.23;18.52;;;16.70;1.00;;;;;;6104046;23;20154;-76
2023/10/08 07:43:16;;;;;;;23.48;16.20;;;16.60;1.00;;;;;;6117730;23;20368;-76
2023/10/08 07:45:54;;;;;;;26.45;16.27;;;16.60;1.00;;;;;;6103766;23;20054;-77
2023/10/08 07:48:35;;;;;;;36.63;24.70;;;16.60;1.00;;;;;;6080859;23;20825;-75
2023/10/08 07:51:06;;;;;;;21.58;14.68;;;16.60;99.90;;;;;;6092031;23;20121;-74
2023/10/08 07:53:45;;;;;;;19.77;13.05;;;16.70;1.00;;;;;;6102458;23;20455;-75
2023/10/08 07:56:43;;;;;;;22.95;13.90;;;16.80;90.30;;;;;;6077018;23;20025;-74
2023/10/08 07:59:38;;;;;;;21.83;14.90;;;17.10;1.00;;;;;;6086431;23;20034;-75
2023/10/08 08:05:21;;;;;;;24.42;14.25;;;17.50;1.00;;;;;;6099033;23;20018;-75
2023/10/08 08:14:00;;;;;;;18.05;11.45;;;18.20;96.20;;;;;;5912072;23;20035;-75
2023/10/08 08:21:14;;;;;;;17.23;11.23;;;17.80;99.90;;;;;;5966903;23;20095;-76
2023/10/08 08:24:44;;;;;;;21.65;13.60;;;17.80;99.90;;;;;;5994393;24;20079;-74
2023/10/08 08:30:48;;;;;;;20.17;13.73;;;18.00;99.90;;;;;;5970942;23;20035;-75
2023/10/08 08:34:02;;;;;;;24.17;15.98;;;18.30;99.90;;;;;;5968915;23;20053;-75
2023/10/08 08:46:04;;;;;;;;;;;;;;;;;;;;;
2023/10/08 10:15:12;;;;;;;28.10;17.35;;;22.50;99.90;;;;;;5956542;24;20498;-78
2023/10/08 10:21:44;;;;;;;23.65;16.20;;;22.60;99.90;;;;;;5889988;24;20120;-78
2023/10/08 11:47:55;;;;;;;14.63;9.30;;;23.70;99.90;;;;;;5791753;24;20398;-80
2023/10/08 11:50:34;;;;;;;17.38;9.02;;;23.80;99.90;;;;;;5944994;24;20619;-78
2023/10/08 11:53:36;;;;;;;18.08;9.23;;;23.90;99.90;;;;;;5982522;24;20453;-81
2023/10/08 11:56:51;;;;;;;19.40;10.50;;;24.10;99.90;;;;;;5906218;24;20024;-81
2023/10/08 11:59:27;;;;;;;17.95;9.02;;;24.20;99.90;;;;;;5934342;24;20028;-80
2023/10/08 12:02:00;;;;;;;17.83;9.32;;;24.40;99.90;;;;;;5974518;24;20080;-79
2023/10/08 12:04:32;;;;;;;21.15;9.60;;;24.80;99.90;;;;;;6008684;23;20046;-79
2023/10/08 12:07:27;;;;;;;18.10;8.93;;;25.20;99.90;;;;;;6068137;23;20018;-81
2023/10/08 12:13:24;;;;;;;16.90;9.32;;;25.40;99.90;;;;;;6031776;23;20097;-85
2023/10/08 12:16:07;;;;;;;17.92;10.75;;;25.20;99.90;;;;;;6081928;23;20052;-83
2023/10/08 12:19:15;;;;;;;18.98;9.95;;;25.20;99.90;;;;;;6068895;23;20049;-83
2023/10/08 12:22:38;;;;;;;18.33;9.88;;;25.30;99.90;;;;;;5918172;23;20028;-83
2023/10/08 12:25:41;;;;;;;19.17;10.00;;;25.30;99.90;;;;;;6045530;23;20376;-82
2023/10/08 12:28:16;;;;;;;18.80;10.52;;;25.50;99.90;;;;;;6074749;23;20443;-84
2023/10/08 12:30:46;;;;;;;19.77;11.25;;;25.70;99.90;;;;;;6072296;23;20498;-84
2023/10/08 12:33:15;;;;;;;21.38;12.25;;;25.90;99.90;;;;;;6062170;23;20042;-83
2023/10/08 12:35:45;;;;;;;20.77;11.50;;;26.10;99.90;;;;;;6086923;23;20011;-82
2023/10/08 12:38:24;;;;;;;24.23;11.63;;;26.20;99.90;;;;;;6080824;23;20070;-82
2023/10/08 12:41:11;;;;;;;17.23;10.50;;;26.20;99.90;;;;;;6124774;23;20022;-82
2023/10/08 12:43:42;;;;;;;24.42;12.05;;;26.10;99.90;;;;;;6138495;23;20101;-80
2023/10/08 12:46:23;;;;;;;21.60;12.27;;;25.80;99.90;;;;;;6103506;23;20017;-81
2023/10/08 12:49:02;;;;;;;23.20;12.73;;;25.50;99.90;;;;;;6065903;23;20049;-82
2023/10/08 12:51:37;;;;;;;22.48;12.02;;;25.30;99.90;;;;;;6105084;23;20028;-82
2023/10/08 12:54:21;;;;;;;;;;;25.10;99.90;;;;;;6105525;23;20022;-82
2023/10/08 13:01:17;;;;;;;20.90;12.23;;;25.10;99.90;;;;;;5905287;23;20043;-83
2023/10/08 13:15:35;;;;;;;26.45;13.10;;;25.40;99.90;;;;;;5928813;24;20040;-83
2023/10/08 13:18:10;;;;;;;28.60;13.93;;;25.60;99.90;;;;;;5940459;23;20036;-82
2023/10/08 13:20:57;;;;;;;25.40;13.93;;;25.80;99.90;;;;;;5986323;23;20393;-83
2023/10/08 13:23:48;;;;;;;30.15;14.70;;;25.90;99.90;;;;;;5967409;23;20374;-81
2023/10/08 14:08:02;;;;;;;22.45;12.23;;;26.00;99.90;;;;;;6011625;23;21854;-79
2023/10/08 14:46:23;;;;;;;19.73;7.38;;;25.00;97.80;;;;;;5988916;23;20020;-80
2023/10/08 15:35:08;;;;;;;35.30;19.23;;;23.60;99.90;;;;;;5890291;24;20018;-83
2023/10/08 15:41:39;;;;;;;32.22;15.57;;;23.40;99.90;;;;;;5789200;24;20030;-81
2023/10/08 15:47:22;;;;;;;29.02;18.52;;;23.20;99.90;;;;;;6176929;23;20075;-80
2023/10/08 15:49:55;;;;;;;37.47;18.83;;;23.10;99.90;;;;;;6130683;23;20100;-81
2023/10/08 15:52:23;;;;;;;39.22;21.05;;;23.00;99.90;;;;;;6154599;23;20453;-81
2023/10/08 15:54:53;;;;;;;40.10;24.55;;;23.00;99.90;;;;;;6166172;23;20046;-82
2023/10/08 15:57:35;;;;;;;39.38;23.88;;;23.00;99.90;;;;;;6126698;23;20057;-82
2023/10/08 16:06:36;;;;;;;57.13;34.65;;;22.60;99.90;;;;;;6178409;22;20031;-80
2023/10/08 16:12:52;;;;;;;62.28;37.05;;;22.40;99.90;;;;;;6178138;23;20485;-82
2023/10/08 16:18:55;;;;;;;62.53;38.25;;;22.10;99.90;;;;;;6176555;23;20500;-82
2023/10/08 16:21:54;;;;;;;65.00;37.50;;;22.10;99.90;;;;;;6228374;23;20040;-83
2023/10/08 16:41:03;;;;;;;178.18;93.07;;;21.90;99.90;;;;;;6150806;22;1650081;-81
2023/10/08 16:43:31;;;;;;;157.82;87.55;;;21.70;99.90;;;;;;6161396;23;20026;-82
2023/10/08 16:46:05;;;;;;;116.60;63.92;;;21.50;99.90;;;;;;6162953;23;20492;-83
2023/10/08 16:48:33;;;;;;;95.13;55.70;;;21.40;99.90;;;;;;6166186;23;20048;-82
2023/10/08 16:51:04;;;;;;;92.25;53.65;;;21.40;99.90;;;;;;6179293;23;20009;-81
2023/10/08 16:53:46;;;;;;;93.70;51.45;;;21.30;99.90;;;;;;6174898;23;20023;-81
2023/10/08 16:56:16;;;;;;;88.30;52.35;;;21.30;99.90;;;;;;6170775;23;20018;-81
2023/10/08 16:58:44;;;;;;;79.72;45.30;;;21.20;99.90;;;;;;6162285;23;20017;-83
2023/10/08 17:03:55;;;;;;;60.03;34.35;;;21.10;99.90;;;;;;6160155;23;20466;-82
2023/10/08 17:06:23;;;;;;;52.03;31.23;;;21.10;99.90;;;;;;6160518;23;20036;-81
2023/10/08 17:08:51;;;;;;;57.28;33.58;;;21.10;99.90;;;;;;6159610;23;20022;-82
2023/10/08 17:11:20;;;;;;;56.45;32.78;;;20.90;99.90;;;;;;6162549;23;20017;-82
2023/10/08 17:13:52;;;;;;;58.63;35.85;;;20.90;99.90;;;;;;6169051;23;20036;-84
2023/10/08 17:16:22;;;;;;;61.28;35.97;;;20.90;99.90;;;;;;6163560;23;20017;-83
2023/10/08 17:18:54;;;;;;;59.08;36.60;;;20.90;99.90;;;;;;6147805;23;20071;-82
2023/10/08 17:21:28;;;;;;;68.13;37.33;;;20.80;99.90;;;;;;6149195;23;20087;-83
2023/10/08 17:34:56;;;;;;;39.53;22.63;;;20.80;99.90;;;;;;5152620;27;20818;-76
2023/10/08 17:41:17;;;;;;;22.30;7.28;;;21.30;99.90;;;;;;4931050;28;20079;-76
2023/10/08 17:43:48;;;;;;;18.85;8.25;;;21.50;99.90;;;;;;4981434;28;20030;-79
2023/10/08 17:46:16;;;;;;;19.55;6.28;;;21.60;99.90;;;;;;4984597;28;20558;-77
2023/10/08 17:48:44;;;;;;;18.30;5.80;;;21.60;99.90;;;;;;5000640;28;20110;-77
2023/10/08 17:51:15;;;;;;;15.02;4.65;;;21.60;99.90;;;;;;4990287;28;20102;-77
2023/10/08 17:53:44;;;;;;;16.83;4.50;;;21.40;99.90;;;;;;4984907;28;20047;-76
2023/10/08 17:56:11;;;;;;;14.70;4.43;;;21.20;99.90;;;;;;4985782;28;20078;-77
2023/10/08 17:58:39;;;;;;;14.32;3.95;;;21.10;99.90;;;;;;4973731;28;20050;-76
2023/10/08 18:01:13;;;;;;;16.08;4.47;;;20.90;99.90;;;;;;4987375;28;20752;-75
2023/10/08 18:03:43;;;;;;;12.15;3.40;;;20.70;99.90;;;;;;4989494;28;20103;-78
2023/10/08 18:06:17;;;;;;;17.67;3.35;;;20.50;99.90;;;;;;4984251;28;20110;-75
2023/10/08 18:08:49;;;;;;;15.18;3.80;;;20.40;99.90;;;;;;4998497;28;20107;-79
2023/10/08 18:11:18;;;;;;;16.73;3.30;;;20.30;99.90;;;;;;5006864;28;20061;-78
2023/10/08 18:13:46;;;;;;;12.88;3.63;;;20.20;99.90;;;;;;5043411;28;20040;-76
2023/10/08 18:16:17;;;;;;;18.30;2.88;;;20.10;99.90;;;;;;5064835;28;20075;-80
2023/10/08 18:18:45;;;;;;;11.93;2.75;;;20.00;99.90;;;;;;5102191;28;20177;-79
2023/10/08 18:21:16;;;;;;;6.90;2.42;;;19.90;99.90;;;;;;5127123;27;20057;-77
2023/10/08 18:23:46;;;;;;;8.40;2.72;;;19.70;99.90;;;;;;5135064;28;20047;-77
2023/10/08 18:26:15;;;;;;;12.18;2.50;;;19.60;99.90;;;;;;5108112;28;20040;-77
2023/10/08 18:28:43;;;;;;;6.68;2.08;;;19.60;99.90;;;;;;5109920;28;20039;-78
2023/10/08 18:31:12;;;;;;;8.63;2.17;;;19.50;99.90;;;;;;5108491;28;20035;-77
2023/10/08 18:33:41;;;;;;;12.45;2.53;;;19.40;99.90;;;;;;5103615;28;20060;-76
2023/10/08 18:36:10;;;;;;;8.98;2.08;;;19.30;99.90;;;;;;5120003;27;20172;-76
2023/10/08 18:38:41;;;;;;;10.82;2.70;;;19.30;99.90;;;;;;5102971;28;20043;-75
2023/10/08 18:41:09;;;;;;;12.18;2.15;;;19.20;99.90;;;;;;5098929;28;20112;-75
2023/10/08 18:43:37;;;;;;;7.82;2.20;;;19.20;99.90;;;;;;5100485;28;20044;-76
2023/10/08 18:46:05;;;;;;;8.02;2.35;;;19.20;99.90;;;;;;5109564;28;20039;-75
2023/10/08 18:48:33;;;;;;;9.18;2.67;;;19.10;99.90;;;;;;5090543;28;20132;-76
2023/10/08 18:51:10;;;;;;;9.48;2.50;;;19.00;99.90;;;;;;5111664;28;20375;-77
2023/10/08 18:53:40;;;;;;;11.70;2.10;;;19.00;99.90;;;;;;5089780;28;20062;-75
2023/10/08 18:56:10;;;;;;;10.98;2.65;;;18.90;99.90;;;;;;5103360;28;20094;-78
2023/10/08 18:58:39;;;;;;;7.00;2.13;;;19.00;99.90;;;;;;5093483;28;20104;-75
2023/10/08 19:01:07;;;;;;;6.30;2.00;;;19.00;99.90;;;;;;5108030;28;20052;-77
2023/10/08 19:03:36;;;;;;;9.10;1.90;;;19.00;99.90;;;;;;5087711;28;20040;-75
2023/10/08 19:06:05;;;;;;;12.15;2.60;;;19.00;99.90;;;;;;5082773;28;20044;-76
2023/10/08 19:08:33;;;;;;;6.78;2.03;;;18.90;99.90;;;;;;5110173;28;20090;-77
2023/10/08 19:11:07;;;;;;;6.72;2.40;;;18.90;99.90;;;;;;5117352;28;20104;-75
2023/10/08 19:13:35;;;;;;;7.35;2.55;;;18.90;99.90;;;;;;5104435;28;20089;-76
2023/10/08 19:16:07;;;;;;;6.55;2.40;;;18.80;99.90;;;;;;5103166;28;20052;-78
2023/10/08 19:18:35;;;;;;;6.43;1.75;;;18.90;99.90;;;;;;5093354;28;20067;-79
2023/10/08 19:21:06;;;;;;;4.95;1.75;;;18.90;99.90;;;;;;5090828;28;20083;-75
2023/10/08 19:23:36;;;;;;;8.70;1.77;;;18.70;99.90;;;;;;5094954;28;20422;-76
2023/10/08 19:26:07;;;;;;;8.32;2.03;;;18.70;99.90;;;;;;5093418;28;20040;-77
2023/10/08 19:28:35;;;;;;;4.82;1.60;;;18.60;99.90;;;;;;5096560;28;20053;-76
2023/10/08 19:31:05;;;;;;;8.02;1.77;;;18.60;99.90;;;;;;5105598;28;20055;-76
2023/10/08 19:33:34;;;;;;;6.47;1.40;;;18.60;99.90;;;;;;5105888;28;20053;-75
2023/10/08 19:36:03;;;;;;;4.28;1.27;;;18.60;99.90;;;;;;5082930;28;20059;-77
2023/10/08 19:38:30;;;;;;;3.58;1.15;;;18.60;99.90;;;;;;5102991;28;20082;-77
2023/10/08 19:40:58;;;;;;;4.85;1.40;;;18.60;99.90;;;;;;5091299;28;20058;-75
2023/10/08 19:43:28;;;;;;;6.10;1.60;;;18.60;99.90;;;;;;5092192;28;20040;-75
2023/10/08 19:45:57;;;;;;;8.73;2.75;;;18.60;99.90;;;;;;5098792;28;20097;-77
2023/10/08 19:48:24;;;;;;;9.95;2.85;;;18.60;99.90;;;;;;5093559;28;20048;-76
2023/10/08 19:50:55;;;;;;;29.48;22.70;;;18.70;99.90;;;;;;5099968;28;20036;-75
2023/10/08 19:53:24;;;;;;;6.72;2.95;;;18.70;99.90;;;;;;5096423;28;20109;-77
2023/10/08 19:55:51;;;;;;;4.63;1.88;;;18.70;99.90;;;;;;5093286;28;20051;-76
2023/10/08 19:58:20;;;;;;;7.30;1.80;;;18.70;99.90;;;;;;5092657;28;20059;-77
2023/10/08 20:00:50;;;;;;;3.72;1.00;;;18.80;99.90;;;;;;5095105;28;20056;-75
2023/10/08 20:03:19;;;;;;;5.80;1.42;;;18.90;99.90;;;;;;5097347;28;20059;-76
2023/10/08 20:05:52;;;;;;;4.68;1.40;;;18.90;99.90;;;;;;5094674;28;20104;-80
2023/10/08 20:08:19;;;;;;;3.53;1.00;;;18.70;99.90;;;;;;5094016;28;20036;-75
2023/10/08 20:10:48;;;;;;;4.15;1.20;;;18.60;99.90;;;;;;5095211;28;20040;-76
2023/10/08 20:13:16;;;;;;;4.80;2.47;;;18.60;99.90;;;;;;5095465;28;20081;-75
2023/10/08 20:15:45;;;;;;;5.50;2.38;;;18.60;99.90;;;;;;5094737;28;20040;-76
2023/10/08 20:18:15;;;;;;;5.25;2.10;;;18.60;99.90;;;;;;5090964;28;20040;-75
2023/10/08 20:20:43;;;;;;;4.15;1.80;;;18.60;99.90;;;;;;5086811;28;20044;-75
2023/10/08 20:23:12;;;;;;;6.47;1.90;;;18.60;99.90;;;;;;5077345;28;20128;-75
2023/10/08 20:25:41;;;;;;;6.45;1.90;;;18.70;99.90;;;;;;5098661;28;20040;-74
2023/10/08 20:28:09;;;;;;;4.95;2.50;;;18.70;99.90;;;;;;5088951;28;20106;-75
2023/10/08 20:30:39;;;;;;;8.93;2.60;;;18.70;99.90;;;;;;5095084;28;20044;-75
2023/10/08 20:33:09;;;;;;;7.70;3.15;;;18.70;99.90;;;;;;5095346;28;20612;-76
2023/10/08 20:35:39;;;;;;;7.10;2.80;;;18.70;99.90;;;;;;5095380;28;20048;-75
2023/10/08 20:38:08;;;;;;;5.85;2.47;;;18.70;99.90;;;;;;5093367;28;20043;-75
2023/10/08 20:40:40;;;;;;;9.43;3.45;;;18.60;99.90;;;;;;5103463;28;20033;-75
2023/10/08 20:43:08;;;;;;;6.35;3.40;;;18.60;99.90;;;;;;5091883;28;20079;-74
2023/10/08 20:45:38;;;;;;;8.88;3.10;;;18.60;99.90;;;;;;5090279;28;20028;-76
2023/10/08 20:48:07;;;;;;;6.10;3.20;;;18.60;99.90;;;;;;5089001;28;20141;-75
2023/10/08 20:50:37;;;;;;;7.78;2.95;;;18.60;99.90;;;;;;5099474;28;20040;-77
2023/10/08 20:53:10;;;;;;;8.57;2.95;;;18.50;99.90;;;;;;5093059;28;20036;-75
2023/10/08 20:55:41;;;;;;;8.90;3.33;;;18.50;99.90;;;;;;5089313;28;20045;-76
2023/10/08 20:58:09;;;;;;;7.60;2.90;;;18.40;99.90;;;;;;5088108;28;20049;-77
2023/10/08 21:00:39;;;;;;;8.75;3.40;;;18.30;99.90;;;;;;5094012;28;20032;-76
2023/10/08 21:03:08;;;;;;;9.68;2.67;;;18.30;99.90;;;;;;5082049;28;20044;-76
2023/10/08 21:05:36;;;;;;;7.47;3.25;;;18.30;99.90;;;;;;5090179;28;20048;-76
2023/10/08 21:08:06;;;;;;;6.50;3.08;;;18.20;99.90;;;;;;5096665;28;20040;-76
2023/10/08 21:10:35;;;;;;;8.75;3.35;;;18.20;99.90;;;;;;5092161;28;20089;-75
2023/10/08 21:13:03;;;;;;;10.80;5.00;;;18.10;99.90;;;;;;5095172;28;20040;-76
2023/10/08 21:15:36;;;;;;;8.77;4.20;;;18.10;99.90;;;;;;5091297;28;20048;-75
2023/10/08 21:18:05;;;;;;;8.93;4.28;;;18.10;99.90;;;;;;5095017;28;20107;-78
2023/10/08 21:20:33;;;;;;;9.90;4.53;;;18.10;99.90;;;;;;5096943;28;20044;-76
2023/10/08 21:23:06;;;;;;;12.27;4.63;;;18.10;99.90;;;;;;5097574;28;20474;-75
2023/10/08 21:25:35;;;;;;;3.40;1.80;;;18.00;99.90;;;;;;5096032;28;20067;-74
2023/10/08 21:28:04;;;;;;;3.35;1.02;;;17.70;99.90;;;;;;5100696;28;20049;-74
2023/10/08 21:30:32;;;;;;;3.88;0.77;;;17.60;99.90;;;;;;5096090;28;20052;-75
2023/10/08 21:33:01;;;;;;;1.33;0.50;;;17.60;99.90;;;;;;5096377;28;20037;-75
2023/10/08 21:35:31;;;;;;;3.65;0.80;;;17.60;99.90;;;;;;5097417;28;20120;-75
2023/10/08 21:37:59;;;;;;;3.83;0.85;;;17.60;99.90;;;;;;5092836;28;20178;-73